sensor_id;sensor_type;location;lat;lon;timestamp;P1;durP1;ratioP1;P2;durP2;ratioP2
2888;SDS011;1453;42.708;23.282;2023-04-01T00:01:04;28.20;;;19.10;;
2888;SDS011;1453;42.708;23.282;2023-04-01T00:03:31;28.93;;;19.93;;
2888;SDS011;1453;42.708;23.282;2023-04-01T00:05:58;28.80;;;18.40;;
2888;SDS011;1453;42.708;23.282;2023-04-01T00:08:26;31.73;;;19.27;;
2888;SDS011;1453;42.708;23.282;2023-04-01T00:10:53;35.70;;;20.87;;
2888;SDS011;1453;42.708;23.282;2023-04-01T00:13:20;34.33;;;19.30;;
2888;SDS011;1453;42.708;23.282;2023-04-01T00:15:47;28.63;;;20.40;;
2888;SDS011;1453;42.708;23.282;2023-04-01T00:18:13;36.47;;;20.30;;
2888;SDS011;1453;42.708;23.282;2023-04-01T00:20:44;34.40;;;18.50;;
2888;SDS011;1453;42.708;23.282;2023-04-01T00:23:11;33.73;;;18.97;;
2888;SDS011;1453;42.708;23.282;2023-04-01T00:25:37;30.77;;;19.77;;
2888;SDS011;1453;42.708;23.282;2023-04-01T00:28:03;25.70;;;18.17;;
2888;SDS011;1453;42.708;23.282;2023-04-01T00:30:30;31.93;;;19.00;;
2888;SDS011;1453;42.708;23.282;2023-04-01T00:32:55;31.07;;;19.03;;
2888;SDS011;1453;42.708;23.282;2023-04-01T00:35:21;26.70;;;18.17;;
2888;SDS011;1453;42.708;23.282;2023-04-01T00:37:47;33.10;;;18.90;;
2888;SDS011;1453;42.708;23.282;2023-04-01T00:40:27;27.50;;;17.20;;
2888;SDS011;1453;42.708;23.282;2023-04-01T00:43:05;28.97;;;16.60;;
2888;SDS011;1453;42.708;23.282;2023-04-01T00:45:44;27.90;;;16.07;;
2888;SDS011;1453;42.708;23.282;2023-04-01T00:50:47;23.33;;;15.33;;
2888;SDS011;1453;42.708;23.282;2023-04-01T00:53:18;24.37;;;16.67;;
2888;SDS011;1453;42.708;23.282;2023-04-01T00:55:47;25.37;;;15.43;;
2888;SDS011;1453;42.708;23.282;2023-04-01T00:58:21;29.20;;;14.53;;
2888;SDS011;1453;42.708;23.282;2023-04-01T01:00:50;21.13;;;14.43;;
2888;SDS011;1453;42.708;23.282;2023-04-01T01:03:16;21.80;;;14.93;;
2888;SDS011;1453;42.708;23.282;2023-04-01T01:09:12;21.20;;;13.20;;
2888;SDS011;1453;42.708;23.282;2023-04-01T01:17:30;18.90;;;13.50;;
2888;SDS011;1453;42.708;23.282;2023-04-01T01:23:12;27.70;;;15.53;;
2888;SDS011;1453;42.708;23.282;2023-04-01T01:26:13;25.53;;;13.53;;
2888;SDS011;1453;42.708;23.282;2023-04-01T01:32:31;20.80;;;12.50;;
2888;SDS011;1453;42.708;23.282;2023-04-01T01:37:59;23.60;;;14.47;;
2888;SDS011;1453;42.708;23.282;2023-04-01T01:40:31;20.47;;;12.10;;
2888;SDS011;1453;42.708;23.282;2023-04-01T01:43:02;16.17;;;10.63;;
2888;SDS011;1453;42.708;23.282;2023-04-01T01:45:32;17.63;;;11.77;;
2888;SDS011;1453;42.708;23.282;2023-04-01T01:48:01;17.73;;;11.90;;
2888;SDS011;1453;42.708;23.282;2023-04-01T01:50:30;24.10;;;13.47;;
2888;SDS011;1453;42.708;23.282;2023-04-01T01:53:00;19.73;;;12.53;;
2888;SDS011;1453;42.708;23.282;2023-04-01T01:55:32;21.50;;;12.47;;
2888;SDS011;1453;42.708;23.282;2023-04-01T01:58:11;21.83;;;11.70;;
2888;SDS011;1453;42.708;23.282;2023-04-01T02:00:40;17.03;;;11.13;;
2888;SDS011;1453;42.708;23.282;2023-04-01T02:03:11;19.53;;;12.37;;
2888;SDS011;1453;42.708;23.282;2023-04-01T02:05:39;24.70;;;12.87;;
2888;SDS011;1453;42.708;23.282;2023-04-01T02:10:42;20.40;;;12.10;;
2888;SDS011;1453;42.708;23.282;2023-04-01T02:13:21;24.90;;;12.90;;
2888;SDS011;1453;42.708;23.282;2023-04-01T02:16:28;15.73;;;10.27;;
2888;SDS011;1453;42.708;23.282;2023-04-01T02:18:59;17.00;;;10.77;;
2888;SDS011;1453;42.708;23.282;2023-04-01T02:21:32;13.47;;;8.90;;
2888;SDS011;1453;42.708;23.282;2023-04-01T02:24:00;18.90;;;11.20;;
2888;SDS011;1453;42.708;23.282;2023-04-01T02:26:29;16.20;;;11.50;;
2888;SDS011;1453;42.708;23.282;2023-04-01T02:28:55;20.73;;;11.40;;
2888;SDS011;1453;42.708;23.282;2023-04-01T02:31:22;19.73;;;11.23;;
2888;SDS011;1453;42.708;23.282;2023-04-01T02:33:49;15.07;;;9.53;;
2888;SDS011;1453;42.708;23.282;2023-04-01T02:36:15;19.07;;;11.60;;
2888;SDS011;1453;42.708;23.282;2023-04-01T02:38:42;18.80;;;10.70;;
2888;SDS011;1453;42.708;23.282;2023-04-01T02:41:09;20.20;;;10.70;;
2888;SDS011;1453;42.708;23.282;2023-04-01T02:43:36;16.33;;;11.43;;
2888;SDS011;1453;42.708;23.282;2023-04-01T02:46:02;20.30;;;12.70;;
2888;SDS011;1453;42.708;23.282;2023-04-01T02:48:28;17.20;;;12.30;;
2888;SDS011;1453;42.708;23.282;2023-04-01T02:50:54;24.10;;;18.60;;
2888;SDS011;1453;42.708;23.282;2023-04-01T02:53:20;39.53;;;21.03;;
2888;SDS011;1453;42.708;23.282;2023-04-01T02:55:47;32.60;;;21.43;;
2888;SDS011;1453;42.708;23.282;2023-04-01T02:58:15;31.33;;;19.20;;
2888;SDS011;1453;42.708;23.282;2023-04-01T03:00:41;32.73;;;21.30;;
2888;SDS011;1453;42.708;23.282;2023-04-01T03:03:07;32.90;;;23.37;;
2888;SDS011;1453;42.708;23.282;2023-04-01T03:05:38;34.27;;;19.63;;
2888;SDS011;1453;42.708;23.282;2023-04-01T03:08:04;32.07;;;20.37;;
2888;SDS011;1453;42.708;23.282;2023-04-01T03:10:31;37.90;;;18.20;;
2888;SDS011;1453;42.708;23.282;2023-04-01T03:12:57;30.27;;;19.00;;
2888;SDS011;1453;42.708;23.282;2023-04-01T03:15:22;25.50;;;18.70;;
2888;SDS011;1453;42.708;23.282;2023-04-01T03:17:48;33.07;;;21.77;;
2888;SDS011;1453;42.708;23.282;2023-04-01T03:20:14;28.70;;;21.33;;
2888;SDS011;1453;42.708;23.282;2023-04-01T03:22:40;36.30;;;19.67;;
2888;SDS011;1453;42.708;23.282;2023-04-01T03:25:06;37.80;;;20.13;;
2888;SDS011;1453;42.708;23.282;2023-04-01T03:27:33;26.53;;;18.30;;
2888;SDS011;1453;42.708;23.282;2023-04-01T03:30:02;27.20;;;16.00;;
2888;SDS011;1453;42.708;23.282;2023-04-01T03:32:30;19.47;;;14.13;;
2888;SDS011;1453;42.708;23.282;2023-04-01T03:34:56;22.30;;;12.90;;
2888;SDS011;1453;42.708;23.282;2023-04-01T03:37:22;12.93;;;7.90;;
2888;SDS011;1453;42.708;23.282;2023-04-01T03:39:49;12.00;;;5.40;;
2888;SDS011;1453;42.708;23.282;2023-04-01T03:42:15;15.70;;;8.80;;
2888;SDS011;1453;42.708;23.282;2023-04-01T03:44:41;17.83;;;9.73;;
2888;SDS011;1453;42.708;23.282;2023-04-01T03:47:07;23.47;;;13.63;;
2888;SDS011;1453;42.708;23.282;2023-04-01T03:49:34;22.10;;;12.90;;
2888;SDS011;1453;42.708;23.282;2023-04-01T03:52:00;20.47;;;11.10;;
2888;SDS011;1453;42.708;23.282;2023-04-01T03:54:26;15.80;;;12.30;;
2888;SDS011;1453;42.708;23.282;2023-04-01T03:56:52;18.97;;;12.30;;
2888;SDS011;1453;42.708;23.282;2023-04-01T03:59:17;15.90;;;10.70;;
2888;SDS011;1453;42.708;23.282;2023-04-01T04:01:43;20.63;;;12.37;;
2888;SDS011;1453;42.708;23.282;2023-04-01T04:04:12;17.03;;;11.17;;
2888;SDS011;1453;42.708;23.282;2023-04-01T04:06:39;20.10;;;12.37;;
2888;SDS011;1453;42.708;23.282;2023-04-01T04:09:05;25.13;;;12.83;;
2888;SDS011;1453;42.708;23.282;2023-04-01T04:11:31;17.60;;;12.00;;
2888;SDS011;1453;42.708;23.282;2023-04-01T04:14:00;23.87;;;14.20;;
2888;SDS011;1453;42.708;23.282;2023-04-01T04:16:27;22.70;;;12.17;;
2888;SDS011;1453;42.708;23.282;2023-04-01T04:18:52;19.17;;;12.10;;
2888;SDS011;1453;42.708;23.282;2023-04-01T04:21:18;19.80;;;11.87;;
2888;SDS011;1453;42.708;23.282;2023-04-01T04:23:44;16.03;;;11.33;;
2888;SDS011;1453;42.708;23.282;2023-04-01T04:26:11;17.13;;;10.83;;
2888;SDS011;1453;42.708;23.282;2023-04-01T04:28:39;21.20;;;13.13;;
2888;SDS011;1453;42.708;23.282;2023-04-01T04:31:05;21.93;;;12.40;;
2888;SDS011;1453;42.708;23.282;2023-04-01T04:33:33;23.30;;;15.43;;
2888;SDS011;1453;42.708;23.282;2023-04-01T04:35:59;16.80;;;12.43;;
2888;SDS011;1453;42.708;23.282;2023-04-01T04:38:27;20.33;;;11.57;;
2888;SDS011;1453;42.708;23.282;2023-04-01T04:40:53;16.87;;;12.33;;
2888;SDS011;1453;42.708;23.282;2023-04-01T04:43:19;20.50;;;12.23;;
2888;SDS011;1453;42.708;23.282;2023-04-01T04:45:45;17.70;;;10.97;;
2888;SDS011;1453;42.708;23.282;2023-04-01T04:48:12;22.77;;;11.67;;
2888;SDS011;1453;42.708;23.282;2023-04-01T04:50:43;22.80;;;11.93;;
2888;SDS011;1453;42.708;23.282;2023-04-01T04:53:11;19.03;;;11.80;;
2888;SDS011;1453;42.708;23.282;2023-04-01T04:55:42;18.50;;;12.10;;
2888;SDS011;1453;42.708;23.282;2023-04-01T04:58:13;20.93;;;11.13;;
2888;SDS011;1453;42.708;23.282;2023-04-01T05:00:39;24.60;;;11.93;;
2888;SDS011;1453;42.708;23.282;2023-04-01T05:03:06;16.63;;;9.87;;
2888;SDS011;1453;42.708;23.282;2023-04-01T05:05:32;12.73;;;8.27;;
2888;SDS011;1453;42.708;23.282;2023-04-01T05:07:58;16.17;;;9.97;;
2888;SDS011;1453;42.708;23.282;2023-04-01T05:10:24;19.23;;;10.80;;
2888;SDS011;1453;42.708;23.282;2023-04-01T05:12:50;15.50;;;10.20;;
2888;SDS011;1453;42.708;23.282;2023-04-01T05:15:15;18.43;;;9.60;;
2888;SDS011;1453;42.708;23.282;2023-04-01T05:17:41;12.60;;;9.60;;
2888;SDS011;1453;42.708;23.282;2023-04-01T05:20:07;15.30;;;10.00;;
2888;SDS011;1453;42.708;23.282;2023-04-01T05:22:33;11.90;;;8.03;;
2888;SDS011;1453;42.708;23.282;2023-04-01T05:24:59;24.10;;;13.70;;
2888;SDS011;1453;42.708;23.282;2023-04-01T05:27:25;18.37;;;9.70;;
2888;SDS011;1453;42.708;23.282;2023-04-01T05:29:51;14.87;;;10.57;;
2888;SDS011;1453;42.708;23.282;2023-04-01T05:32:16;27.33;;;12.80;;
2888;SDS011;1453;42.708;23.282;2023-04-01T05:34:42;24.43;;;13.60;;
2888;SDS011;1453;42.708;23.282;2023-04-01T05:37:08;21.43;;;13.17;;
2888;SDS011;1453;42.708;23.282;2023-04-01T05:39:38;16.67;;;11.40;;
2888;SDS011;1453;42.708;23.282;2023-04-01T05:42:05;21.87;;;11.80;;
2888;SDS011;1453;42.708;23.282;2023-04-01T05:44:32;22.83;;;12.77;;
2888;SDS011;1453;42.708;23.282;2023-04-01T05:46:59;22.17;;;13.70;;
2888;SDS011;1453;42.708;23.282;2023-04-01T05:49:24;20.47;;;12.40;;
2888;SDS011;1453;42.708;23.282;2023-04-01T05:51:50;19.43;;;11.57;;
2888;SDS011;1453;42.708;23.282;2023-04-01T05:54:16;19.93;;;11.13;;
2888;SDS011;1453;42.708;23.282;2023-04-01T05:56:42;18.70;;;11.73;;
2888;SDS011;1453;42.708;23.282;2023-04-01T05:59:09;18.23;;;11.60;;
2888;SDS011;1453;42.708;23.282;2023-04-01T06:01:36;21.17;;;12.03;;
2888;SDS011;1453;42.708;23.282;2023-04-01T06:04:02;13.47;;;10.70;;
2888;SDS011;1453;42.708;23.282;2023-04-01T06:06:28;17.20;;;9.73;;
2888;SDS011;1453;42.708;23.282;2023-04-01T06:08:57;15.73;;;9.03;;
2888;SDS011;1453;42.708;23.282;2023-04-01T06:17:30;17.23;;;8.57;;
2888;SDS011;1453;42.708;23.282;2023-04-01T06:47:00;12.30;;;7.73;;
2888;SDS011;1453;42.708;23.282;2023-04-01T06:50:01;12.80;;;6.80;;
2888;SDS011;1453;42.708;23.282;2023-04-01T06:52:55;9.43;;;6.50;;
2888;SDS011;1453;42.708;23.282;2023-04-01T06:55:46;9.30;;;5.83;;
2888;SDS011;1453;42.708;23.282;2023-04-01T06:58:35;9.13;;;5.60;;
2888;SDS011;1453;42.708;23.282;2023-04-01T07:01:07;14.60;;;6.37;;
2888;SDS011;1453;42.708;23.282;2023-04-01T07:04:13;14.90;;;6.37;;
2888;SDS011;1453;42.708;23.282;2023-04-01T07:06:36;9.20;;;5.77;;
2888;SDS011;1453;42.708;23.282;2023-04-01T07:09:18;13.07;;;5.97;;
2888;SDS011;1453;42.708;23.282;2023-04-01T07:11:49;14.83;;;6.03;;
2888;SDS011;1453;42.708;23.282;2023-04-01T07:14:37;10.47;;;6.30;;
2888;SDS011;1453;42.708;23.282;2023-04-01T07:17:17;7.70;;;5.50;;
2888;SDS011;1453;42.708;23.282;2023-04-01T07:22:42;11.53;;;5.53;;
2888;SDS011;1453;42.708;23.282;2023-04-01T07:25:15;7.47;;;5.73;;
2888;SDS011;1453;42.708;23.282;2023-04-01T07:27:43;9.70;;;6.03;;
2888;SDS011;1453;42.708;23.282;2023-04-01T07:30:14;12.73;;;6.50;;
2888;SDS011;1453;42.708;23.282;2023-04-01T07:33:05;8.80;;;7.13;;
2888;SDS011;1453;42.708;23.282;2023-04-01T07:35:40;11.87;;;6.20;;
2888;SDS011;1453;42.708;23.282;2023-04-01T07:38:24;10.73;;;6.20;;
2888;SDS011;1453;42.708;23.282;2023-04-01T07:41:21;11.10;;;6.60;;
2888;SDS011;1453;42.708;23.282;2023-04-01T07:46:57;13.83;;;7.10;;
2888;SDS011;1453;42.708;23.282;2023-04-01T07:52:31;9.67;;;6.00;;
2888;SDS011;1453;42.708;23.282;2023-04-01T07:55:23;17.80;;;7.53;;
2888;SDS011;1453;42.708;23.282;2023-04-01T08:10:18;12.50;;;7.60;;
2888;SDS011;1453;42.708;23.282;2023-04-01T08:15:55;16.73;;;7.00;;
2888;SDS011;1453;42.708;23.282;2023-04-01T08:18:50;9.57;;;6.20;;
2888;SDS011;1453;42.708;23.282;2023-04-01T08:21:38;11.30;;;6.53;;
2888;SDS011;1453;42.708;23.282;2023-04-01T08:27:09;10.13;;;6.37;;
2888;SDS011;1453;42.708;23.282;2023-04-01T08:29:57;12.93;;;7.10;;
2888;SDS011;1453;42.708;23.282;2023-04-01T08:32:52;14.67;;;6.90;;
2888;SDS011;1453;42.708;23.282;2023-04-01T08:35:49;9.00;;;5.83;;
2888;SDS011;1453;42.708;23.282;2023-04-01T08:38:31;9.87;;;5.67;;
2888;SDS011;1453;42.708;23.282;2023-04-01T09:17:00;12.20;;;4.37;;
2888;SDS011;1453;42.708;23.282;2023-04-01T09:34:54;11.07;;;4.40;;
2888;SDS011;1453;42.708;23.282;2023-04-01T09:43:34;8.27;;;4.10;;
2888;SDS011;1453;42.708;23.282;2023-04-01T10:04:14;10.17;;;3.43;;
2888;SDS011;1453;42.708;23.282;2023-04-01T10:13:30;8.87;;;2.97;;
2888;SDS011;1453;42.708;23.282;2023-04-01T10:30:48;6.87;;;3.87;;
2888;SDS011;1453;42.708;23.282;2023-04-01T11:24:54;7.43;;;4.10;;
2888;SDS011;1453;42.708;23.282;2023-04-01T11:33:18;4.27;;;3.13;;
2888;SDS011;1453;42.708;23.282;2023-04-01T11:42:20;5.00;;;3.13;;
2888;SDS011;1453;42.708;23.282;2023-04-01T11:44:19;7.73;;;3.70;;
